createdAt,value
2022-09-11T00:02:25.009Z,23.30
2022-09-11T00:05:11.122Z,23.30
2022-09-11T00:07:56.968Z,23.20
2022-09-11T00:10:43.969Z,23.00
2022-09-11T00:13:29.562Z,23.00
2022-09-11T00:16:35.069Z,22.90
2022-09-11T00:19:23.986Z,22.80
2022-09-11T00:22:09.752Z,22.70
2022-09-11T00:24:55.689Z,22.70
2022-09-11T00:27:41.478Z,22.60
2022-09-11T00:30:27.519Z,22.60
2022-09-11T00:33:15.693Z,22.40
2022-09-11T00:36:07.853Z,22.40
2022-09-11T00:38:53.894Z,22.40
2022-09-11T00:41:42.975Z,22.30
2022-09-11T00:44:29.782Z,22.30
2022-09-11T00:47:18.563Z,22.40
2022-09-11T00:50:13.629Z,22.50
2022-09-11T00:53:08.024Z,22.40
2022-09-11T00:55:58.627Z,22.40
2022-09-11T00:58:48.758Z,22.40
2022-09-11T01:01:34.605Z,22.40
2022-09-11T01:04:21.882Z,22.50
2022-09-11T01:07:07.829Z,22.60
2022-09-11T01:09:53.960Z,22.50
2022-09-11T01:12:57.709Z,22.40
2022-09-11T01:16:02.655Z,22.30
2022-09-11T01:19:20.659Z,22.30
2022-09-11T01:22:34.308Z,22.00
2022-09-11T01:25:45.059Z,22.00
2022-09-11T01:28:46.680Z,21.90
2022-09-11T01:31:40.520Z,21.90
2022-09-11T01:34:59.320Z,22.00
2022-09-11T01:37:54.350Z,21.90
2022-09-11T01:40:53.556Z,22.00
2022-09-11T01:44:03.944Z,22.00
2022-09-11T01:46:53.778Z,21.80
2022-09-11T01:50:12.346Z,21.50
2022-09-11T01:53:03.240Z,21.60
2022-09-11T01:55:56.316Z,21.70
2022-09-11T01:58:48.348Z,21.70
2022-09-11T02:01:36.071Z,21.70
2022-09-11T02:04:31.766Z,21.90
2022-09-11T02:07:31.433Z,22.00
2022-09-11T02:10:22.893Z,22.00
2022-09-11T02:13:29.732Z,22.00
2022-09-11T02:16:38.866Z,22.00
2022-09-11T02:19:27.087Z,22.10
2022-09-11T02:22:12.998Z,20.90
2022-09-11T02:25:01.448Z,21.50
2022-09-11T02:27:47.321Z,21.00
2022-09-11T02:30:33.313Z,21.20
2022-09-11T02:33:34.147Z,20.80
2022-09-11T02:36:35.007Z,20.90
2022-09-11T02:39:46.368Z,21.10
2022-09-11T02:43:08.721Z,21.40
2022-09-11T02:46:01.946Z,21.60
2022-09-11T02:48:56.849Z,21.80
2022-09-11T02:52:04.607Z,21.80
2022-09-11T02:55:08.674Z,21.60
2022-09-11T02:58:16.485Z,21.30
2022-09-11T03:01:05.264Z,20.70
2022-09-11T03:03:51.967Z,20.10
2022-09-11T03:06:38.832Z,20.10
2022-09-11T03:09:25.969Z,19.80
2022-09-11T03:12:17.795Z,19.70
2022-09-11T03:15:10.573Z,19.90
2022-09-11T03:17:57.861Z,20.00
2022-09-11T03:20:47.790Z,20.00
2022-09-11T03:23:33.543Z,20.30
2022-09-11T03:26:19.289Z,20.40
2022-09-11T03:29:08.590Z,20.60
2022-09-11T03:31:58.722Z,20.80
2022-09-11T03:34:47.196Z,20.60
2022-09-11T03:37:33.279Z,20.70
2022-09-11T03:40:20.412Z,20.80
2022-09-11T03:43:06.438Z,20.10
2022-09-11T03:45:52.451Z,20.00
2022-09-11T03:48:38.840Z,20.00
2022-09-11T03:51:26.540Z,19.90
2022-09-11T03:54:13.022Z,20.20
2022-09-11T03:56:59.121Z,20.50
2022-09-11T03:59:45.923Z,20.50
2022-09-11T04:02:32.540Z,20.40
2022-09-11T04:05:18.371Z,20.20
2022-09-11T04:08:06.596Z,20.60
2022-09-11T04:10:58.426Z,20.60
2022-09-11T04:13:44.428Z,20.80
2022-09-11T04:16:34.059Z,21.00
2022-09-11T04:19:24.127Z,21.20
2022-09-11T04:22:10.417Z,21.10
2022-09-11T04:25:00.526Z,21.20
2022-09-11T04:27:50.397Z,21.20
2022-09-11T04:30:39.424Z,21.00
2022-09-11T04:33:25.534Z,21.00
2022-09-11T04:36:14.484Z,21.20
2022-09-11T04:39:01.406Z,21.00
2022-09-11T04:41:49.263Z,20.60
2022-09-11T04:44:35.425Z,20.50
2022-09-11T04:47:21.232Z,20.70
2022-09-11T04:50:08.147Z,20.50
2022-09-11T04:52:54.551Z,20.20
2022-09-11T04:55:40.449Z,19.90
2022-09-11T04:58:26.511Z,19.60
2022-09-11T05:01:16.963Z,19.70
2022-09-11T05:04:08.785Z,19.90
2022-09-11T05:06:55.387Z,19.90
2022-09-11T05:09:41.243Z,19.80
2022-09-11T05:12:28.168Z,19.60
2022-09-11T05:15:14.120Z,19.20
2022-09-11T05:18:01.371Z,19.10
2022-09-11T05:21:02.579Z,19.60
2022-09-11T05:23:54.612Z,19.70
2022-09-11T05:26:40.920Z,19.50
2022-09-11T05:29:32.206Z,19.40
2022-09-11T05:32:27.701Z,19.60
2022-09-11T05:35:16.881Z,19.40
2022-09-11T05:38:02.856Z,19.60
2022-09-11T05:40:51.283Z,19.40
2022-09-11T05:43:41.572Z,19.80
2022-09-11T05:46:28.544Z,19.50
2022-09-11T05:49:21.934Z,19.30
2022-09-11T05:52:07.972Z,18.90
2022-09-11T05:54:54.225Z,19.00
2022-09-11T05:57:40.007Z,19.60
2022-09-11T06:00:25.766Z,19.60
2022-09-11T06:03:15.393Z,19.80
2022-09-11T06:06:03.606Z,20.30
2022-09-11T06:08:51.854Z,20.80
2022-09-11T06:11:40.318Z,20.80
2022-09-11T06:14:27.261Z,21.20
2022-09-11T06:17:13.176Z,21.50
2022-09-11T06:19:59.702Z,21.70
2022-09-11T06:22:47.020Z,22.10
2022-09-11T06:25:33.191Z,22.30
2022-09-11T06:28:19.210Z,22.40
2022-09-11T06:31:06.674Z,21.80
2022-09-11T06:33:55.063Z,21.40
2022-09-11T06:36:41.329Z,21.40
2022-09-11T06:39:27.126Z,22.10
2022-09-11T06:42:14.559Z,22.20
2022-09-11T06:45:00.337Z,21.40
2022-09-11T06:47:47.928Z,21.30
2022-09-11T06:50:41.861Z,21.20
2022-09-11T06:53:27.875Z,21.20
2022-09-11T06:56:19.324Z,21.70
2022-09-11T06:59:06.310Z,22.00
2022-09-11T07:01:52.858Z,21.90
2022-09-11T07:04:39.947Z,21.60
2022-09-11T07:07:28.220Z,21.50
2022-09-11T07:10:14.703Z,21.80
2022-09-11T07:13:01.820Z,21.50
2022-09-11T07:15:49.227Z,21.40
2022-09-11T07:18:42.171Z,22.00
2022-09-11T07:21:34.310Z,21.90
2022-09-11T07:24:22.297Z,22.20
2022-09-11T07:27:08.875Z,22.00
2022-09-11T07:29:56.140Z,22.00
2022-09-11T07:32:43.324Z,22.60
2022-09-11T07:35:28.909Z,22.90
2022-09-11T07:38:17.352Z,23.00
2022-09-11T07:41:03.649Z,23.00
2022-09-11T07:43:57.251Z,23.20
2022-09-11T07:46:46.032Z,22.90
2022-09-11T07:49:33.163Z,23.10
2022-09-11T07:52:20.572Z,23.40
2022-09-11T07:55:19.269Z,23.80
2022-09-11T07:58:05.558Z,24.60
2022-09-11T08:00:59.473Z,25.20
2022-09-11T08:03:47.417Z,26.70
2022-09-11T08:06:37.336Z,26.90
2022-09-11T08:09:28.971Z,29.00
2022-09-11T08:12:20.181Z,30.50
2022-09-11T08:15:09.229Z,29.10
2022-09-11T08:17:55.314Z,28.40
2022-09-11T08:20:42.148Z,28.60
2022-09-11T08:23:29.257Z,30.40
2022-09-11T08:26:19.385Z,32.00
2022-09-11T08:29:06.473Z,32.20
2022-09-11T08:31:52.472Z,29.10
2022-09-11T08:34:38.804Z,29.70
2022-09-11T08:37:26.009Z,31.00
2022-09-11T08:40:14.188Z,32.30
2022-09-11T08:43:03.367Z,32.50
2022-09-11T08:45:51.820Z,33.30
2022-09-11T08:48:52.225Z,33.00
2022-09-11T08:51:39.853Z,32.00
2022-09-11T08:54:39.245Z,32.00
2022-09-11T08:58:14.514Z,31.80
2022-09-11T09:01:24.509Z,31.80
2022-09-11T09:04:43.627Z,31.10
2022-09-11T09:07:55.105Z,33.30
2022-09-11T09:10:57.066Z,34.20
2022-09-11T09:14:06.968Z,34.40
2022-09-11T09:17:19.209Z,35.00
2022-09-11T09:20:18.079Z,33.60
2022-09-11T09:23:12.964Z,33.40
2022-09-11T09:26:12.653Z,33.80
2022-09-11T09:29:04.207Z,33.00
2022-09-11T09:31:55.220Z,34.30
2022-09-11T09:34:44.271Z,34.50
2022-09-11T09:37:31.906Z,34.70
2022-09-11T09:40:19.471Z,34.10
2022-09-11T09:43:12.973Z,34.20
2022-09-11T09:46:33.169Z,30.30
2022-09-11T09:49:32.754Z,31.20
2022-09-11T09:52:23.044Z,33.70
2022-09-11T09:55:18.395Z,33.30
2022-09-11T09:58:04.644Z,34.40
2022-09-11T10:00:50.918Z,36.40
2022-09-11T10:03:37.045Z,37.20
2022-09-11T10:06:24.664Z,37.20
2022-09-11T10:09:26.593Z,34.70
2022-09-11T10:12:36.041Z,35.60
2022-09-11T10:15:23.608Z,35.90
2022-09-11T10:18:22.423Z,34.40
2022-09-11T10:21:36.484Z,35.20
2022-09-11T10:24:23.571Z,35.60
2022-09-11T10:27:12.589Z,35.20
2022-09-11T10:29:59.096Z,35.20
2022-09-11T10:32:45.217Z,36.00
2022-09-11T10:35:33.606Z,36.60
2022-09-11T10:38:21.600Z,37.50
2022-09-11T10:41:19.509Z,37.70
2022-09-11T10:44:14.039Z,37.20
2022-09-11T10:47:30.067Z,36.90
2022-09-11T10:50:25.560Z,37.30
2022-09-11T10:53:26.126Z,37.00
2022-09-11T10:56:13.632Z,36.70
2022-09-11T10:59:12.375Z,36.60
2022-09-11T11:01:58.987Z,36.90
2022-09-11T11:04:45.662Z,34.70
2022-09-11T11:07:59.214Z,34.50
2022-09-11T11:11:07.054Z,34.00
2022-09-11T11:14:14.806Z,31.00
2022-09-11T11:17:22.993Z,34.40
2022-09-11T11:20:14.782Z,36.80
2022-09-11T11:23:16.515Z,38.20
2022-09-11T11:26:44.119Z,39.00
2022-09-11T11:29:55.184Z,39.90
2022-09-11T11:32:54.481Z,40.10
2022-09-11T11:35:52.591Z,34.20
2022-09-11T11:38:47.358Z,33.00
2022-09-11T11:41:44.593Z,31.80
2022-09-11T11:44:58.182Z,32.00
2022-09-11T11:47:45.907Z,33.50
2022-09-11T11:50:42.123Z,37.40
2022-09-11T11:54:03.059Z,37.20
2022-09-11T11:56:55.201Z,36.20
2022-09-11T11:59:59.010Z,39.40
2022-09-11T12:02:53.392Z,34.10
2022-09-11T12:05:39.265Z,34.20
2022-09-11T12:08:25.050Z,36.70
2022-09-11T12:11:16.602Z,37.30
2022-09-11T12:14:03.953Z,37.80
2022-09-11T12:16:52.792Z,38.70
2022-09-11T12:19:58.990Z,38.10
2022-09-11T12:22:50.689Z,37.80
2022-09-11T12:25:36.672Z,36.20
2022-09-11T12:28:26.325Z,32.50
2022-09-11T12:31:21.416Z,31.60
2022-09-11T12:34:17.567Z,30.50
2022-09-11T12:37:09.319Z,29.70
2022-09-11T12:40:22.547Z,29.20
2022-09-11T12:43:45.812Z,29.30
2022-09-11T12:46:31.693Z,29.10
2022-09-11T12:49:23.169Z,29.50
2022-09-11T12:52:25.159Z,29.00
2022-09-11T12:55:50.124Z,28.80
2022-09-11T12:58:45.899Z,26.20
2022-09-11T13:01:38.127Z,27.80
2022-09-11T13:04:33.952Z,28.70
2022-09-11T13:07:50.533Z,29.00
2022-09-11T13:10:39.502Z,27.70
2022-09-11T13:13:37.797Z,27.50
2022-09-11T13:16:26.008Z,28.00
2022-09-11T13:19:17.868Z,28.60
2022-09-11T13:22:31.427Z,28.80
2022-09-11T13:25:28.042Z,28.80
2022-09-11T13:28:22.282Z,28.70
2022-09-11T13:31:20.064Z,28.50
2022-09-11T13:34:13.361Z,28.60
2022-09-11T13:37:00.000Z,28.80
2022-09-11T13:39:47.265Z,28.60
2022-09-11T13:42:35.864Z,28.90
2022-09-11T13:45:29.331Z,29.00
2022-09-11T13:48:23.564Z,29.10
2022-09-11T13:51:15.377Z,29.10
2022-09-11T13:54:09.242Z,28.70
2022-09-11T13:56:54.825Z,28.90
2022-09-11T13:59:44.644Z,29.30
2022-09-11T14:02:49.775Z,29.30
2022-09-11T14:05:36.714Z,29.10
2022-09-11T14:08:40.724Z,29.10
2022-09-11T14:11:31.505Z,29.00
2022-09-11T14:14:26.114Z,28.60
2022-09-11T14:17:15.895Z,28.10
2022-09-11T14:20:08.840Z,28.10
2022-09-11T14:22:57.721Z,28.70
2022-09-11T14:26:08.684Z,28.90
2022-09-11T14:28:59.711Z,28.80
2022-09-11T14:31:47.430Z,28.80
2022-09-11T14:34:33.135Z,28.60
2022-09-11T14:37:19.453Z,28.80
2022-09-11T14:40:24.144Z,29.10
2022-09-11T14:43:12.082Z,29.10
2022-09-11T14:46:02.784Z,29.10
2022-09-11T14:48:49.328Z,28.90
2022-09-11T14:51:38.007Z,28.60
2022-09-11T14:54:24.892Z,28.50
2022-09-11T14:57:20.761Z,28.60
2022-09-11T15:00:10.981Z,28.30
2022-09-11T15:02:57.106Z,28.50
2022-09-11T15:05:46.137Z,28.80
2022-09-11T15:08:32.138Z,29.00
2022-09-11T15:11:18.661Z,28.70
2022-09-11T15:14:32.127Z,28.00
2022-09-11T15:17:17.375Z,27.80
2022-09-11T15:20:08.000Z,28.20
2022-09-11T15:22:54.710Z,28.50
2022-09-11T15:25:42.539Z,28.50
2022-09-11T15:28:30.043Z,28.20
2022-09-11T15:34:23.626Z,27.00
2022-09-11T15:37:12.150Z,28.20
2022-09-11T15:40:02.926Z,28.00
2022-09-11T15:42:50.811Z,28.30
2022-09-11T15:45:42.744Z,28.40
2022-09-11T15:48:31.155Z,28.50
2022-09-11T15:51:24.075Z,28.30
2022-09-11T15:54:11.269Z,27.90
2022-09-11T15:56:57.429Z,27.70
2022-09-11T15:59:43.844Z,28.20
2022-09-11T16:02:30.074Z,28.00
2022-09-11T16:05:18.578Z,28.20
2022-09-11T16:08:04.822Z,28.10
2022-09-11T16:10:51.406Z,28.40
2022-09-11T16:13:38.024Z,28.40
2022-09-11T16:16:24.590Z,28.40
2022-09-11T16:19:10.262Z,28.40
2022-09-11T16:22:02.169Z,28.20
2022-09-11T16:24:48.218Z,28.30
2022-09-11T16:27:35.001Z,28.10
2022-09-11T16:30:42.598Z,29.40
2022-09-11T16:33:34.926Z,28.50
2022-09-11T16:36:21.462Z,28.80
2022-09-11T16:39:09.093Z,28.70
2022-09-11T16:41:55.898Z,28.10
2022-09-11T16:44:45.179Z,28.10
2022-09-11T16:47:32.493Z,27.70
2022-09-11T16:50:18.406Z,27.80
2022-09-11T16:53:04.966Z,27.60
2022-09-11T16:55:53.352Z,27.80
2022-09-11T16:58:39.484Z,27.40
2022-09-11T17:01:27.350Z,27.40
2022-09-11T17:04:16.681Z,27.30
2022-09-11T17:07:02.725Z,27.70
2022-09-11T17:09:48.855Z,27.90
2022-09-11T17:12:35.195Z,27.60
2022-09-11T17:15:22.056Z,27.50
2022-09-11T17:18:11.452Z,27.50
2022-09-11T17:21:02.845Z,27.40
2022-09-11T17:23:48.904Z,27.40
2022-09-11T17:26:37.304Z,27.30
2022-09-11T17:29:26.271Z,27.20
2022-09-11T17:32:27.892Z,27.10
2022-09-11T17:35:15.934Z,27.40
2022-09-11T17:38:04.358Z,27.50
2022-09-11T17:40:50.251Z,27.60
2022-09-11T17:43:38.909Z,27.20
2022-09-11T17:46:25.193Z,27.10
2022-09-11T17:49:15.350Z,27.40
2022-09-11T17:52:01.516Z,27.30
2022-09-11T17:54:47.249Z,27.00
2022-09-11T17:57:35.525Z,27.00
2022-09-11T18:00:23.526Z,27.00
2022-09-11T18:03:09.223Z,27.30
2022-09-11T18:05:56.270Z,26.80
2022-09-11T18:08:43.339Z,26.50
2022-09-11T18:11:33.046Z,26.50
2022-09-11T18:14:19.854Z,26.50
2022-09-11T18:17:06.087Z,26.40
2022-09-11T18:19:56.918Z,26.10
2022-09-11T18:22:44.297Z,26.20
2022-09-11T18:25:31.469Z,26.50
2022-09-11T18:28:20.093Z,26.80
2022-09-11T18:31:11.135Z,26.50
2022-09-11T18:34:00.035Z,26.70
2022-09-11T18:36:47.722Z,26.40
2022-09-11T18:39:36.148Z,26.00
2022-09-11T18:42:24.925Z,25.90
2022-09-11T18:45:12.363Z,25.90
2022-09-11T18:48:00.079Z,26.20
2022-09-11T18:50:46.435Z,26.40
2022-09-11T18:53:33.082Z,26.60
2022-09-11T18:59:20.423Z,26.30
2022-09-11T19:02:07.828Z,26.50
2022-09-11T19:04:53.522Z,26.40
2022-09-11T19:07:40.175Z,25.80
2022-09-11T19:10:26.741Z,25.80
2022-09-11T19:13:14.316Z,25.90
2022-09-11T19:16:00.538Z,25.90
2022-09-11T19:18:47.410Z,25.80
2022-09-11T19:21:34.211Z,25.50
2022-09-11T19:24:19.894Z,25.40
2022-09-11T19:27:05.670Z,25.20
2022-09-11T19:29:52.254Z,25.00
2022-09-11T19:32:37.885Z,25.00
2022-09-11T19:35:25.003Z,24.90
2022-09-11T19:38:10.983Z,24.60
2022-09-11T19:41:00.364Z,24.50
2022-09-11T19:43:48.281Z,24.50
2022-09-11T19:46:36.358Z,24.40
2022-09-11T19:49:22.075Z,24.40
2022-09-11T19:52:10.439Z,24.30
2022-09-11T19:54:56.163Z,24.20
2022-09-11T19:57:42.172Z,24.20
2022-09-11T20:00:29.292Z,24.20
2022-09-11T20:03:15.807Z,24.10
2022-09-11T20:06:01.788Z,24.10
2022-09-11T20:08:56.007Z,24.10
2022-09-11T20:11:55.222Z,24.10
2022-09-11T20:14:42.819Z,24.00
2022-09-11T20:17:29.085Z,24.00
2022-09-11T20:20:16.111Z,24.00
2022-09-11T20:23:01.845Z,24.00
2022-09-11T20:25:47.687Z,24.00
2022-09-11T20:28:33.381Z,23.70
2022-09-11T20:31:32.188Z,23.60
2022-09-11T20:34:18.585Z,23.50
2022-09-11T20:37:08.167Z,23.50
2022-09-11T20:39:55.777Z,23.40
2022-09-11T20:42:42.057Z,23.50
2022-09-11T20:45:27.440Z,23.50
2022-09-11T20:48:13.539Z,23.50
2022-09-11T20:51:06.163Z,23.60
2022-09-11T20:53:52.898Z,23.50
2022-09-11T20:56:38.932Z,23.60
2022-09-11T20:59:24.877Z,23.70
2022-09-11T21:02:14.841Z,23.70
2022-09-11T21:05:00.764Z,23.60
2022-09-11T21:07:46.661Z,23.50
2022-09-11T21:10:36.052Z,23.40
2022-09-11T21:13:21.731Z,23.30
2022-09-11T21:16:11.681Z,23.10
2022-09-11T21:18:59.833Z,22.90
2022-09-11T21:21:45.582Z,22.80
2022-09-11T21:24:31.104Z,22.80
2022-09-11T21:27:16.650Z,22.50
2022-09-11T21:30:02.322Z,22.60
2022-09-11T21:32:48.122Z,23.00
2022-09-11T21:35:33.683Z,23.10
2022-09-11T21:38:28.492Z,23.10
2022-09-11T21:41:14.673Z,23.00
2022-09-11T21:44:00.269Z,22.90
2022-09-11T21:46:45.978Z,22.90
2022-09-11T21:49:33.144Z,22.80
2022-09-11T21:52:18.946Z,22.70
2022-09-11T21:55:05.194Z,22.60
2022-09-11T21:57:51.237Z,22.60
2022-09-11T22:00:42.551Z,22.80
2022-09-11T22:03:29.126Z,22.80
2022-09-11T22:06:17.522Z,22.80
2022-09-11T22:09:03.192Z,22.70
2022-09-11T22:11:49.995Z,22.60
2022-09-11T22:14:35.767Z,22.60
2022-09-11T22:17:22.012Z,22.70
2022-09-11T22:20:08.046Z,22.70
2022-09-11T22:22:56.492Z,22.50
2022-09-11T22:25:43.022Z,22.50
2022-09-11T22:28:30.052Z,22.70
2022-09-11T22:31:19.346Z,22.70
2022-09-11T22:34:05.461Z,22.70
2022-09-11T22:36:52.362Z,22.70
2022-09-11T22:39:38.170Z,22.80
2022-09-11T22:42:24.196Z,22.80
2022-09-11T22:45:10.871Z,22.50
2022-09-11T22:47:56.637Z,22.40
2022-09-11T22:50:43.306Z,22.20
2022-09-11T22:53:30.438Z,22.00
2022-09-11T22:56:16.760Z,21.80
2022-09-11T22:59:02.522Z,21.80
2022-09-11T23:01:48.002Z,21.70
2022-09-11T23:04:33.582Z,21.80
2022-09-11T23:07:19.412Z,21.80
2022-09-11T23:10:05.286Z,21.80
2022-09-11T23:12:52.273Z,21.70
2022-09-11T23:15:38.084Z,21.70
2022-09-11T23:18:25.100Z,21.80
2022-09-11T23:21:11.496Z,21.80
2022-09-11T23:23:58.128Z,21.70
2022-09-11T23:26:45.359Z,21.60
2022-09-11T23:29:31.340Z,21.60
2022-09-11T23:32:17.402Z,21.60
2022-09-11T23:35:03.444Z,21.60
2022-09-11T23:37:49.384Z,21.70
2022-09-11T23:40:35.271Z,21.60
2022-09-11T23:43:20.840Z,21.60
2022-09-11T23:46:07.107Z,21.60
2022-09-11T23:48:53.185Z,21.70
2022-09-11T23:51:39.608Z,21.80
2022-09-11T23:54:25.441Z,21.50
2022-09-11T23:57:11.634Z,21.80
2022-09-11T23:59:57.116Z,21.80
